sensor_id;sensor_type;location;lat;lon;timestamp;P1;durP1;ratioP1;P2;durP2;ratioP2
9117;SDS011;4594;50.994;7.126;2023-06-19T00:02:06;3.43;;;3.13;;
9117;SDS011;4594;50.994;7.126;2023-06-19T00:04:32;3.10;;;2.90;;
9117;SDS011;4594;50.994;7.126;2023-06-19T00:06:59;3.40;;;3.10;;
9117;SDS011;4594;50.994;7.126;2023-06-19T00:09:25;3.60;;;3.30;;
9117;SDS011;4594;50.994;7.126;2023-06-19T00:11:51;3.50;;;3.30;;
9117;SDS011;4594;50.994;7.126;2023-06-19T00:14:16;3.00;;;2.80;;
9117;SDS011;4594;50.994;7.126;2023-06-19T00:16:43;3.70;;;3.43;;
9117;SDS011;4594;50.994;7.126;2023-06-19T00:19:09;3.97;;;3.60;;
9117;SDS011;4594;50.994;7.126;2023-06-19T00:21:36;4.20;;;3.90;;
9117;SDS011;4594;50.994;7.126;2023-06-19T00:24:03;4.10;;;3.70;;
9117;SDS011;4594;50.994;7.126;2023-06-19T00:26:30;5.13;;;3.57;;
9117;SDS011;4594;50.994;7.126;2023-06-19T00:28:56;3.57;;;3.37;;
9117;SDS011;4594;50.994;7.126;2023-06-19T00:31:22;3.77;;;3.47;;
9117;SDS011;4594;50.994;7.126;2023-06-19T00:33:48;4.40;;;3.20;;
9117;SDS011;4594;50.994;7.126;2023-06-19T00:36:16;4.00;;;3.70;;
9117;SDS011;4594;50.994;7.126;2023-06-19T00:38:46;5.43;;;3.80;;
9117;SDS011;4594;50.994;7.126;2023-06-19T00:41:13;3.60;;;3.40;;
9117;SDS011;4594;50.994;7.126;2023-06-19T00:43:40;4.00;;;3.77;;
9117;SDS011;4594;50.994;7.126;2023-06-19T00:46:06;3.90;;;3.33;;
9117;SDS011;4594;50.994;7.126;2023-06-19T00:48:32;5.03;;;3.87;;
9117;SDS011;4594;50.994;7.126;2023-06-19T00:50:59;3.70;;;3.30;;
9117;SDS011;4594;50.994;7.126;2023-06-19T00:53:25;4.00;;;3.70;;
9117;SDS011;4594;50.994;7.126;2023-06-19T00:55:51;3.87;;;3.63;;
9117;SDS011;4594;50.994;7.126;2023-06-19T00:58:20;3.63;;;3.37;;
9117;SDS011;4594;50.994;7.126;2023-06-19T01:00:46;3.87;;;3.57;;
9117;SDS011;4594;50.994;7.126;2023-06-19T01:03:13;4.17;;;3.70;;
9117;SDS011;4594;50.994;7.126;2023-06-19T01:05:42;4.03;;;3.73;;
9117;SDS011;4594;50.994;7.126;2023-06-19T01:10:48;4.20;;;3.80;;
9117;SDS011;4594;50.994;7.126;2023-06-19T01:16:13;4.13;;;3.63;;
9117;SDS011;4594;50.994;7.126;2023-06-19T01:18:41;4.17;;;3.87;;
9117;SDS011;4594;50.994;7.126;2023-06-19T01:21:09;3.73;;;3.50;;
9117;SDS011;4594;50.994;7.126;2023-06-19T01:23:41;4.37;;;3.80;;
9117;SDS011;4594;50.994;7.126;2023-06-19T01:26:07;4.27;;;3.70;;
9117;SDS011;4594;50.994;7.126;2023-06-19T01:28:39;4.00;;;3.70;;
9117;SDS011;4594;50.994;7.126;2023-06-19T01:31:12;4.03;;;3.73;;
9117;SDS011;4594;50.994;7.126;2023-06-19T01:33:45;4.10;;;3.80;;
9117;SDS011;4594;50.994;7.126;2023-06-19T01:36:15;7.07;;;4.00;;
9117;SDS011;4594;50.994;7.126;2023-06-19T01:38:44;3.80;;;3.37;;
9117;SDS011;4594;50.994;7.126;2023-06-19T01:41:12;4.30;;;4.00;;
9117;SDS011;4594;50.994;7.126;2023-06-19T01:43:41;4.00;;;3.70;;
9117;SDS011;4594;50.994;7.126;2023-06-19T01:46:08;4.20;;;3.87;;
9117;SDS011;4594;50.994;7.126;2023-06-19T01:48:34;4.43;;;4.03;;
9117;SDS011;4594;50.994;7.126;2023-06-19T01:51:03;4.20;;;3.60;;
9117;SDS011;4594;50.994;7.126;2023-06-19T01:53:31;3.80;;;3.50;;
9117;SDS011;4594;50.994;7.126;2023-06-19T01:55:58;3.67;;;3.43;;
9117;SDS011;4594;50.994;7.126;2023-06-19T01:58:24;4.00;;;3.80;;
9117;SDS011;4594;50.994;7.126;2023-06-19T02:00:50;4.10;;;3.73;;
9117;SDS011;4594;50.994;7.126;2023-06-19T02:03:16;4.47;;;4.07;;
9117;SDS011;4594;50.994;7.126;2023-06-19T02:05:42;5.83;;;4.00;;
9117;SDS011;4594;50.994;7.126;2023-06-19T02:08:08;4.00;;;3.80;;
9117;SDS011;4594;50.994;7.126;2023-06-19T02:10:34;4.63;;;3.90;;
9117;SDS011;4594;50.994;7.126;2023-06-19T02:13:00;4.70;;;4.30;;
9117;SDS011;4594;50.994;7.126;2023-06-19T02:15:26;4.50;;;4.20;;
9117;SDS011;4594;50.994;7.126;2023-06-19T02:17:52;4.57;;;4.17;;
9117;SDS011;4594;50.994;7.126;2023-06-19T02:20:23;3.53;;;3.33;;
9117;SDS011;4594;50.994;7.126;2023-06-19T02:22:50;4.53;;;4.10;;
9117;SDS011;4594;50.994;7.126;2023-06-19T02:25:16;4.77;;;4.30;;
9117;SDS011;4594;50.994;7.126;2023-06-19T02:27:43;4.77;;;3.70;;
9117;SDS011;4594;50.994;7.126;2023-06-19T02:30:09;5.47;;;4.30;;
9117;SDS011;4594;50.994;7.126;2023-06-19T02:32:35;5.17;;;4.07;;
9117;SDS011;4594;50.994;7.126;2023-06-19T02:35:00;4.07;;;3.70;;
9117;SDS011;4594;50.994;7.126;2023-06-19T02:37:26;6.10;;;4.40;;
9117;SDS011;4594;50.994;7.126;2023-06-19T02:39:52;4.37;;;4.07;;
9117;SDS011;4594;50.994;7.126;2023-06-19T02:42:17;4.77;;;3.97;;
9117;SDS011;4594;50.994;7.126;2023-06-19T02:44:43;4.20;;;3.93;;
9117;SDS011;4594;50.994;7.126;2023-06-19T02:47:09;6.07;;;3.83;;
9117;SDS011;4594;50.994;7.126;2023-06-19T02:49:34;4.37;;;4.07;;
9117;SDS011;4594;50.994;7.126;2023-06-19T02:52:00;4.90;;;3.93;;
9117;SDS011;4594;50.994;7.126;2023-06-19T02:54:26;4.10;;;3.80;;
9117;SDS011;4594;50.994;7.126;2023-06-19T02:56:51;4.20;;;3.90;;
9117;SDS011;4594;50.994;7.126;2023-06-19T02:59:17;4.43;;;3.93;;
9117;SDS011;4594;50.994;7.126;2023-06-19T03:01:43;4.80;;;4.40;;
9117;SDS011;4594;50.994;7.126;2023-06-19T03:04:08;4.17;;;3.87;;
9117;SDS011;4594;50.994;7.126;2023-06-19T03:06:34;3.93;;;3.73;;
9117;SDS011;4594;50.994;7.126;2023-06-19T03:09:04;4.90;;;4.00;;
9117;SDS011;4594;50.994;7.126;2023-06-19T03:11:37;6.13;;;4.30;;
9117;SDS011;4594;50.994;7.126;2023-06-19T03:14:06;4.13;;;3.83;;
9117;SDS011;4594;50.994;7.126;2023-06-19T03:16:32;3.90;;;3.60;;
9117;SDS011;4594;50.994;7.126;2023-06-19T03:19:00;4.43;;;4.13;;
9117;SDS011;4594;50.994;7.126;2023-06-19T03:21:26;4.50;;;4.10;;
9117;SDS011;4594;50.994;7.126;2023-06-19T03:23:52;4.37;;;4.07;;
9117;SDS011;4594;50.994;7.126;2023-06-19T03:26:18;11.10;;;5.67;;
9117;SDS011;4594;50.994;7.126;2023-06-19T03:28:45;13.40;;;6.10;;
9117;SDS011;4594;50.994;7.126;2023-06-19T03:31:17;8.43;;;5.50;;
9117;SDS011;4594;50.994;7.126;2023-06-19T03:33:42;4.67;;;4.27;;
9117;SDS011;4594;50.994;7.126;2023-06-19T03:36:08;4.20;;;3.90;;
9117;SDS011;4594;50.994;7.126;2023-06-19T03:38:34;4.87;;;4.33;;
9117;SDS011;4594;50.994;7.126;2023-06-19T03:41:00;4.47;;;4.10;;
9117;SDS011;4594;50.994;7.126;2023-06-19T03:43:25;4.00;;;3.70;;
9117;SDS011;4594;50.994;7.126;2023-06-19T03:45:51;4.53;;;4.23;;
9117;SDS011;4594;50.994;7.126;2023-06-19T03:48:17;4.10;;;3.80;;
9117;SDS011;4594;50.994;7.126;2023-06-19T03:50:43;5.80;;;4.27;;
9117;SDS011;4594;50.994;7.126;2023-06-19T03:53:09;4.27;;;3.97;;
9117;SDS011;4594;50.994;7.126;2023-06-19T03:55:34;4.33;;;3.93;;
9117;SDS011;4594;50.994;7.126;2023-06-19T03:58:00;4.57;;;4.17;;
9117;SDS011;4594;50.994;7.126;2023-06-19T04:00:26;5.37;;;4.50;;
9117;SDS011;4594;50.994;7.126;2023-06-19T04:02:52;4.67;;;4.37;;
9117;SDS011;4594;50.994;7.126;2023-06-19T04:05:18;4.10;;;3.80;;
9117;SDS011;4594;50.994;7.126;2023-06-19T04:07:46;4.43;;;4.13;;
9117;SDS011;4594;50.994;7.126;2023-06-19T04:10:12;4.37;;;4.00;;
9117;SDS011;4594;50.994;7.126;2023-06-19T04:12:38;4.83;;;4.43;;
9117;SDS011;4594;50.994;7.126;2023-06-19T04:15:05;5.20;;;4.13;;
9117;SDS011;4594;50.994;7.126;2023-06-19T04:17:32;4.47;;;4.13;;
9117;SDS011;4594;50.994;7.126;2023-06-19T04:19:57;5.93;;;4.60;;
9117;SDS011;4594;50.994;7.126;2023-06-19T04:22:23;8.10;;;4.27;;
9117;SDS011;4594;50.994;7.126;2023-06-19T04:24:49;4.73;;;4.37;;
9117;SDS011;4594;50.994;7.126;2023-06-19T04:27:15;5.03;;;4.53;;
9117;SDS011;4594;50.994;7.126;2023-06-19T04:29:40;5.63;;;5.00;;
9117;SDS011;4594;50.994;7.126;2023-06-19T04:32:06;4.93;;;4.27;;
9117;SDS011;4594;50.994;7.126;2023-06-19T04:34:36;4.70;;;4.30;;
9117;SDS011;4594;50.994;7.126;2023-06-19T04:37:03;5.60;;;4.43;;
9117;SDS011;4594;50.994;7.126;2023-06-19T04:39:30;4.53;;;4.10;;
9117;SDS011;4594;50.994;7.126;2023-06-19T04:41:55;4.90;;;4.50;;
9117;SDS011;4594;50.994;7.126;2023-06-19T04:44:21;6.40;;;4.27;;
9117;SDS011;4594;50.994;7.126;2023-06-19T04:46:47;4.07;;;3.67;;
9117;SDS011;4594;50.994;7.126;2023-06-19T04:49:12;3.50;;;3.30;;
9117;SDS011;4594;50.994;7.126;2023-06-19T04:51:39;3.67;;;3.37;;
9117;SDS011;4594;50.994;7.126;2023-06-19T04:54:06;4.03;;;3.20;;
9117;SDS011;4594;50.994;7.126;2023-06-19T04:56:32;3.63;;;3.27;;
9117;SDS011;4594;50.994;7.126;2023-06-19T04:58:57;4.80;;;3.00;;
9117;SDS011;4594;50.994;7.126;2023-06-19T05:01:25;3.17;;;2.97;;
9117;SDS011;4594;50.994;7.126;2023-06-19T05:03:55;3.60;;;2.83;;
9117;SDS011;4594;50.994;7.126;2023-06-19T05:06:25;3.23;;;3.03;;
9117;SDS011;4594;50.994;7.126;2023-06-19T05:08:51;9.90;;;3.03;;
9117;SDS011;4594;50.994;7.126;2023-06-19T05:11:17;4.40;;;2.80;;
9117;SDS011;4594;50.994;7.126;2023-06-19T05:13:43;2.50;;;2.30;;
9117;SDS011;4594;50.994;7.126;2023-06-19T05:16:09;2.83;;;2.60;;
9117;SDS011;4594;50.994;7.126;2023-06-19T05:18:36;6.90;;;2.40;;
9117;SDS011;4594;50.994;7.126;2023-06-19T05:21:02;2.50;;;2.40;;
9117;SDS011;4594;50.994;7.126;2023-06-19T05:23:27;2.60;;;2.40;;
9117;SDS011;4594;50.994;7.126;2023-06-19T05:25:53;3.67;;;2.27;;
9117;SDS011;4594;50.994;7.126;2023-06-19T05:28:19;2.73;;;2.27;;
9117;SDS011;4594;50.994;7.126;2023-06-19T05:30:44;6.13;;;2.10;;
9117;SDS011;4594;50.994;7.126;2023-06-19T05:33:10;2.63;;;2.23;;
9117;SDS011;4594;50.994;7.126;2023-06-19T05:38:10;2.77;;;2.37;;
9117;SDS011;4594;50.994;7.126;2023-06-19T05:40:36;2.20;;;2.10;;
9117;SDS011;4594;50.994;7.126;2023-06-19T05:43:02;3.50;;;2.57;;
9117;SDS011;4594;50.994;7.126;2023-06-19T05:45:27;2.60;;;2.50;;
9117;SDS011;4594;50.994;7.126;2023-06-19T05:47:53;2.63;;;2.30;;
9117;SDS011;4594;50.994;7.126;2023-06-19T05:50:19;3.40;;;2.00;;
9117;SDS011;4594;50.994;7.126;2023-06-19T05:52:44;1.70;;;1.60;;
9117;SDS011;4594;50.994;7.126;2023-06-19T05:55:10;2.53;;;2.37;;
9117;SDS011;4594;50.994;7.126;2023-06-19T05:57:37;2.33;;;2.13;;
9117;SDS011;4594;50.994;7.126;2023-06-19T06:00:03;2.10;;;2.00;;
9117;SDS011;4594;50.994;7.126;2023-06-19T06:02:30;2.10;;;2.00;;
9117;SDS011;4594;50.994;7.126;2023-06-19T06:04:56;4.30;;;2.13;;
9117;SDS011;4594;50.994;7.126;2023-06-19T06:07:22;2.50;;;2.20;;
9117;SDS011;4594;50.994;7.126;2023-06-19T06:09:47;4.40;;;1.90;;
9117;SDS011;4594;50.994;7.126;2023-06-19T06:12:13;2.20;;;2.00;;
9117;SDS011;4594;50.994;7.126;2023-06-19T06:14:40;4.00;;;2.00;;
9117;SDS011;4594;50.994;7.126;2023-06-19T06:17:06;2.87;;;2.23;;
9117;SDS011;4594;50.994;7.126;2023-06-19T06:19:32;1.70;;;1.60;;
9117;SDS011;4594;50.994;7.126;2023-06-19T06:21:58;2.13;;;2.03;;
9117;SDS011;4594;50.994;7.126;2023-06-19T06:24:23;2.40;;;2.20;;
9117;SDS011;4594;50.994;7.126;2023-06-19T06:26:49;5.77;;;2.20;;
9117;SDS011;4594;50.994;7.126;2023-06-19T06:29:15;2.07;;;1.87;;
9117;SDS011;4594;50.994;7.126;2023-06-19T06:31:40;4.00;;;1.60;;
9117;SDS011;4594;50.994;7.126;2023-06-19T06:34:06;2.30;;;1.80;;
9117;SDS011;4594;50.994;7.126;2023-06-19T06:36:32;1.77;;;1.77;;
9117;SDS011;4594;50.994;7.126;2023-06-19T06:38:58;2.13;;;1.67;;
9117;SDS011;4594;50.994;7.126;2023-06-19T06:41:24;3.40;;;2.00;;
9117;SDS011;4594;50.994;7.126;2023-06-19T06:43:49;5.00;;;1.93;;
9117;SDS011;4594;50.994;7.126;2023-06-19T06:46:15;3.50;;;2.00;;
9117;SDS011;4594;50.994;7.126;2023-06-19T06:48:40;7.63;;;2.10;;
9117;SDS011;4594;50.994;7.126;2023-06-19T06:51:06;6.73;;;2.10;;
9117;SDS011;4594;50.994;7.126;2023-06-19T06:53:32;1.87;;;1.77;;
9117;SDS011;4594;50.994;7.126;2023-06-19T06:55:58;1.80;;;1.70;;
9117;SDS011;4594;50.994;7.126;2023-06-19T06:58:28;1.67;;;1.57;;
9117;SDS011;4594;50.994;7.126;2023-06-19T07:00:55;1.57;;;1.30;;
9117;SDS011;4594;50.994;7.126;2023-06-19T07:03:21;2.40;;;1.70;;
9117;SDS011;4594;50.994;7.126;2023-06-19T07:05:47;4.43;;;1.70;;
9117;SDS011;4594;50.994;7.126;2023-06-19T07:08:13;1.83;;;1.70;;
9117;SDS011;4594;50.994;7.126;2023-06-19T07:10:39;2.23;;;1.60;;
9117;SDS011;4594;50.994;7.126;2023-06-19T07:13:05;1.53;;;1.43;;
9117;SDS011;4594;50.994;7.126;2023-06-19T07:15:30;1.30;;;1.30;;
9117;SDS011;4594;50.994;7.126;2023-06-19T07:17:56;1.07;;;1.07;;
9117;SDS011;4594;50.994;7.126;2023-06-19T07:20:22;4.93;;;1.60;;
9117;SDS011;4594;50.994;7.126;2023-06-19T07:22:50;1.40;;;1.30;;
9117;SDS011;4594;50.994;7.126;2023-06-19T07:25:17;6.03;;;1.50;;
9117;SDS011;4594;50.994;7.126;2023-06-19T07:27:43;6.23;;;1.90;;
9117;SDS011;4594;50.994;7.126;2023-06-19T07:30:09;2.27;;;1.30;;
9117;SDS011;4594;50.994;7.126;2023-06-19T07:32:36;4.93;;;1.40;;
9117;SDS011;4594;50.994;7.126;2023-06-19T07:35:03;1.23;;;1.23;;
9117;SDS011;4594;50.994;7.126;2023-06-19T07:37:30;1.43;;;1.40;;
9117;SDS011;4594;50.994;7.126;2023-06-19T07:39:55;1.73;;;1.60;;
9117;SDS011;4594;50.994;7.126;2023-06-19T07:42:21;3.33;;;1.50;;
9117;SDS011;4594;50.994;7.126;2023-06-19T07:44:47;1.00;;;1.00;;
9117;SDS011;4594;50.994;7.126;2023-06-19T07:47:13;1.83;;;1.33;;
9117;SDS011;4594;50.994;7.126;2023-06-19T07:49:41;4.20;;;1.50;;
9117;SDS011;4594;50.994;7.126;2023-06-19T07:52:06;3.67;;;1.10;;
9117;SDS011;4594;50.994;7.126;2023-06-19T07:54:34;2.20;;;0.90;;
9117;SDS011;4594;50.994;7.126;2023-06-19T07:57:00;0.90;;;0.90;;
9117;SDS011;4594;50.994;7.126;2023-06-19T07:59:26;1.40;;;1.30;;
9117;SDS011;4594;50.994;7.126;2023-06-19T08:01:52;2.03;;;1.00;;
9117;SDS011;4594;50.994;7.126;2023-06-19T08:04:17;1.87;;;1.03;;
9117;SDS011;4594;50.994;7.126;2023-06-19T08:06:43;0.90;;;0.90;;
9117;SDS011;4594;50.994;7.126;2023-06-19T08:09:09;1.10;;;1.10;;
9117;SDS011;4594;50.994;7.126;2023-06-19T08:11:34;2.10;;;1.10;;
9117;SDS011;4594;50.994;7.126;2023-06-19T08:14:02;1.00;;;1.00;;
9117;SDS011;4594;50.994;7.126;2023-06-19T08:16:27;0.90;;;0.90;;
9117;SDS011;4594;50.994;7.126;2023-06-19T08:18:53;1.00;;;1.00;;
9117;SDS011;4594;50.994;7.126;2023-06-19T08:21:19;2.83;;;1.03;;
9117;SDS011;4594;50.994;7.126;2023-06-19T08:23:46;1.20;;;1.10;;
9117;SDS011;4594;50.994;7.126;2023-06-19T08:26:12;1.30;;;1.20;;
9117;SDS011;4594;50.994;7.126;2023-06-19T08:28:38;1.53;;;1.43;;
9117;SDS011;4594;50.994;7.126;2023-06-19T08:31:06;1.00;;;1.00;;
9117;SDS011;4594;50.994;7.126;2023-06-19T08:33:33;1.00;;;1.00;;
9117;SDS011;4594;50.994;7.126;2023-06-19T08:36:00;3.60;;;1.10;;
9117;SDS011;4594;50.994;7.126;2023-06-19T08:38:26;1.93;;;1.03;;
9117;SDS011;4594;50.994;7.126;2023-06-19T08:40:51;1.67;;;1.10;;
9117;SDS011;4594;50.994;7.126;2023-06-19T08:43:18;1.10;;;1.10;;
9117;SDS011;4594;50.994;7.126;2023-06-19T08:45:52;0.90;;;0.90;;
9117;SDS011;4594;50.994;7.126;2023-06-19T08:48:35;1.30;;;1.20;;
9117;SDS011;4594;50.994;7.126;2023-06-19T08:51:02;1.53;;;1.37;;
9117;SDS011;4594;50.994;7.126;2023-06-19T08:53:32;0.87;;;0.87;;
9117;SDS011;4594;50.994;7.126;2023-06-19T08:56:01;6.93;;;1.83;;
9117;SDS011;4594;50.994;7.126;2023-06-19T08:58:28;1.23;;;1.20;;
9117;SDS011;4594;50.994;7.126;2023-06-19T09:00:54;8.67;;;1.70;;
9117;SDS011;4594;50.994;7.126;2023-06-19T09:03:22;1.40;;;1.30;;
9117;SDS011;4594;50.994;7.126;2023-06-19T09:05:48;1.30;;;1.20;;
9117;SDS011;4594;50.994;7.126;2023-06-19T09:08:15;1.10;;;1.00;;
9117;SDS011;4594;50.994;7.126;2023-06-19T09:11:01;2.67;;;1.30;;
9117;SDS011;4594;50.994;7.126;2023-06-19T09:13:29;2.80;;;1.03;;
9117;SDS011;4594;50.994;7.126;2023-06-19T09:16:07;1.67;;;1.57;;
9117;SDS011;4594;50.994;7.126;2023-06-19T09:18:46;1.07;;;1.07;;
9117;SDS011;4594;50.994;7.126;2023-06-19T09:21:16;1.23;;;1.23;;
9117;SDS011;4594;50.994;7.126;2023-06-19T09:23:47;1.20;;;1.10;;
9117;SDS011;4594;50.994;7.126;2023-06-19T09:26:16;1.43;;;1.10;;
9117;SDS011;4594;50.994;7.126;2023-06-19T09:28:44;1.27;;;1.07;;
9117;SDS011;4594;50.994;7.126;2023-06-19T09:31:09;5.60;;;1.20;;
9117;SDS011;4594;50.994;7.126;2023-06-19T09:33:36;1.20;;;1.20;;
9117;SDS011;4594;50.994;7.126;2023-06-19T09:36:04;1.50;;;1.40;;
9117;SDS011;4594;50.994;7.126;2023-06-19T09:38:31;6.27;;;1.10;;
9117;SDS011;4594;50.994;7.126;2023-06-19T09:41:02;1.17;;;1.17;;
9117;SDS011;4594;50.994;7.126;2023-06-19T09:43:44;1.50;;;1.30;;
9117;SDS011;4594;50.994;7.126;2023-06-19T09:46:12;1.37;;;1.37;;
9117;SDS011;4594;50.994;7.126;2023-06-19T09:48:42;1.70;;;1.60;;
9117;SDS011;4594;50.994;7.126;2023-06-19T09:51:17;3.57;;;1.80;;
9117;SDS011;4594;50.994;7.126;2023-06-19T09:53:47;1.40;;;1.40;;
9117;SDS011;4594;50.994;7.126;2023-06-19T09:56:15;2.57;;;1.77;;
9117;SDS011;4594;50.994;7.126;2023-06-19T09:58:46;1.60;;;1.43;;
9117;SDS011;4594;50.994;7.126;2023-06-19T10:01:15;2.07;;;1.87;;
9117;SDS011;4594;50.994;7.126;2023-06-19T10:03:43;3.70;;;1.90;;
9117;SDS011;4594;50.994;7.126;2023-06-19T10:06:12;1.77;;;1.67;;
9117;SDS011;4594;50.994;7.126;2023-06-19T10:08:43;2.00;;;1.80;;
9117;SDS011;4594;50.994;7.126;2023-06-19T10:11:10;4.53;;;2.03;;
9117;SDS011;4594;50.994;7.126;2023-06-19T10:13:37;1.50;;;1.50;;
9117;SDS011;4594;50.994;7.126;2023-06-19T10:16:06;2.58;;;1.85;;
9117;SDS011;4594;50.994;7.126;2023-06-19T10:18:48;3.15;;;1.80;;
9117;SDS011;4594;50.994;7.126;2023-06-19T10:21:21;1.88;;;1.73;;
9117;SDS011;4594;50.994;7.126;2023-06-19T10:23:57;1.65;;;1.58;;
9117;SDS011;4594;50.994;7.126;2023-06-19T10:26:32;5.35;;;2.15;;
9117;SDS011;4594;50.994;7.126;2023-06-19T10:29:00;2.10;;;1.90;;
9117;SDS011;4594;50.994;7.126;2023-06-19T10:31:27;1.92;;;1.73;;
9117;SDS011;4594;50.994;7.126;2023-06-19T10:33:55;1.63;;;1.63;;
9117;SDS011;4594;50.994;7.126;2023-06-19T10:36:22;1.75;;;1.60;;
9117;SDS011;4594;50.994;7.126;2023-06-19T10:38:51;1.67;;;1.58;;
9117;SDS011;4594;50.994;7.126;2023-06-19T10:41:17;1.70;;;1.60;;
9117;SDS011;4594;50.994;7.126;2023-06-19T10:46:31;1.77;;;1.67;;
9117;SDS011;4594;50.994;7.126;2023-06-19T10:49:00;4.03;;;1.48;;
9117;SDS011;4594;50.994;7.126;2023-06-19T10:51:35;2.92;;;1.60;;
9117;SDS011;4594;50.994;7.126;2023-06-19T10:54:03;2.30;;;2.05;;
9117;SDS011;4594;50.994;7.126;2023-06-19T10:56:29;3.58;;;2.10;;
9117;SDS011;4594;50.994;7.126;2023-06-19T10:59:04;1.88;;;1.77;;
9117;SDS011;4594;50.994;7.126;2023-06-19T11:01:41;4.65;;;1.60;;
9117;SDS011;4594;50.994;7.126;2023-06-19T11:04:13;4.10;;;1.65;;
9117;SDS011;4594;50.994;7.126;2023-06-19T11:06:41;2.28;;;1.70;;
9117;SDS011;4594;50.994;7.126;2023-06-19T11:09:09;2.53;;;1.63;;
9117;SDS011;4594;50.994;7.126;2023-06-19T11:11:40;2.38;;;2.17;;
9117;SDS011;4594;50.994;7.126;2023-06-19T11:14:09;2.00;;;1.90;;
9117;SDS011;4594;50.994;7.126;2023-06-19T11:16:38;2.70;;;1.80;;
9117;SDS011;4594;50.994;7.126;2023-06-19T11:19:19;3.83;;;1.90;;
9117;SDS011;4594;50.994;7.126;2023-06-19T11:21:51;2.53;;;1.90;;
9117;SDS011;4594;50.994;7.126;2023-06-19T11:24:18;1.92;;;1.83;;
9117;SDS011;4594;50.994;7.126;2023-06-19T11:26:46;1.98;;;1.88;;
9117;SDS011;4594;50.994;7.126;2023-06-19T11:29:15;2.00;;;1.90;;
9117;SDS011;4594;50.994;7.126;2023-06-19T11:31:47;1.90;;;1.80;;
9117;SDS011;4594;50.994;7.126;2023-06-19T11:34:14;3.92;;;2.00;;
9117;SDS011;4594;50.994;7.126;2023-06-19T11:36:42;2.33;;;2.00;;
9117;SDS011;4594;50.994;7.126;2023-06-19T11:39:09;4.40;;;2.00;;
9117;SDS011;4594;50.994;7.126;2023-06-19T11:41:40;1.97;;;1.87;;
9117;SDS011;4594;50.994;7.126;2023-06-19T11:44:09;3.60;;;1.90;;
9117;SDS011;4594;50.994;7.126;2023-06-19T11:46:35;3.77;;;2.17;;
9117;SDS011;4594;50.994;7.126;2023-06-19T11:52:00;4.40;;;2.33;;
9117;SDS011;4594;50.994;7.126;2023-06-19T11:54:26;2.20;;;2.00;;
9117;SDS011;4594;50.994;7.126;2023-06-19T11:56:52;2.20;;;1.90;;
9117;SDS011;4594;50.994;7.126;2023-06-19T11:59:17;5.10;;;2.30;;
9117;SDS011;4594;50.994;7.126;2023-06-19T12:01:43;2.83;;;2.63;;
9117;SDS011;4594;50.994;7.126;2023-06-19T12:04:09;3.23;;;2.20;;
9117;SDS011;4594;50.994;7.126;2023-06-19T12:06:34;3.47;;;2.60;;
9117;SDS011;4594;50.994;7.126;2023-06-19T12:09:00;1.83;;;1.73;;
9117;SDS011;4594;50.994;7.126;2023-06-19T12:11:27;3.87;;;1.97;;
9117;SDS011;4594;50.994;7.126;2023-06-19T12:13:53;3.73;;;2.10;;
9117;SDS011;4594;50.994;7.126;2023-06-19T12:16:20;2.10;;;2.00;;
9117;SDS011;4594;50.994;7.126;2023-06-19T12:18:46;4.47;;;2.40;;
9117;SDS011;4594;50.994;7.126;2023-06-19T12:21:12;2.70;;;2.50;;
9117;SDS011;4594;50.994;7.126;2023-06-19T12:23:37;2.47;;;2.17;;
9117;SDS011;4594;50.994;7.126;2023-06-19T12:26:03;2.40;;;2.20;;
9117;SDS011;4594;50.994;7.126;2023-06-19T12:28:29;2.30;;;2.20;;
9117;SDS011;4594;50.994;7.126;2023-06-19T12:30:55;2.47;;;2.23;;
9117;SDS011;4594;50.994;7.126;2023-06-19T12:33:21;3.57;;;2.20;;
9117;SDS011;4594;50.994;7.126;2023-06-19T12:35:47;3.07;;;2.53;;
9117;SDS011;4594;50.994;7.126;2023-06-19T12:38:13;2.50;;;2.20;;
9117;SDS011;4594;50.994;7.126;2023-06-19T12:40:39;2.27;;;2.10;;
9117;SDS011;4594;50.994;7.126;2023-06-19T12:43:05;4.93;;;2.43;;
9117;SDS011;4594;50.994;7.126;2023-06-19T12:45:31;6.47;;;2.50;;
9117;SDS011;4594;50.994;7.126;2023-06-19T12:47:57;2.70;;;2.50;;
9117;SDS011;4594;50.994;7.126;2023-06-19T12:50:23;2.53;;;2.37;;
9117;SDS011;4594;50.994;7.126;2023-06-19T12:52:49;2.63;;;2.40;;
9117;SDS011;4594;50.994;7.126;2023-06-19T12:55:15;5.03;;;2.60;;
9117;SDS011;4594;50.994;7.126;2023-06-19T12:57:41;2.60;;;2.40;;
9117;SDS011;4594;50.994;7.126;2023-06-19T13:00:10;2.77;;;2.57;;
9117;SDS011;4594;50.994;7.126;2023-06-19T13:02:38;2.30;;;2.20;;
9117;SDS011;4594;50.994;7.126;2023-06-19T13:05:05;2.47;;;2.30;;
9117;SDS011;4594;50.994;7.126;2023-06-19T13:07:34;2.33;;;2.13;;
9117;SDS011;4594;50.994;7.126;2023-06-19T13:10:00;2.30;;;2.13;;
9117;SDS011;4594;50.994;7.126;2023-06-19T13:12:26;2.10;;;2.00;;
9117;SDS011;4594;50.994;7.126;2023-06-19T13:14:52;2.57;;;2.37;;
9117;SDS011;4594;50.994;7.126;2023-06-19T13:17:18;2.50;;;2.30;;
9117;SDS011;4594;50.994;7.126;2023-06-19T13:19:44;2.37;;;2.17;;
9117;SDS011;4594;50.994;7.126;2023-06-19T13:22:10;2.30;;;2.10;;
9117;SDS011;4594;50.994;7.126;2023-06-19T13:24:35;2.80;;;2.33;;
9117;SDS011;4594;50.994;7.126;2023-06-19T13:27:01;3.33;;;2.13;;
9117;SDS011;4594;50.994;7.126;2023-06-19T13:29:27;2.47;;;2.27;;
9117;SDS011;4594;50.994;7.126;2023-06-19T13:31:53;3.23;;;2.20;;
9117;SDS011;4594;50.994;7.126;2023-06-19T13:34:19;2.43;;;2.20;;
9117;SDS011;4594;50.994;7.126;2023-06-19T13:36:46;3.10;;;2.13;;
9117;SDS011;4594;50.994;7.126;2023-06-19T13:39:12;2.53;;;2.33;;
9117;SDS011;4594;50.994;7.126;2023-06-19T13:41:38;2.57;;;2.20;;
9117;SDS011;4594;50.994;7.126;2023-06-19T13:44:04;2.90;;;2.00;;
9117;SDS011;4594;50.994;7.126;2023-06-19T13:46:30;2.13;;;2.03;;
9117;SDS011;4594;50.994;7.126;2023-06-19T13:48:57;2.93;;;2.33;;
9117;SDS011;4594;50.994;7.126;2023-06-19T13:51:23;2.20;;;2.10;;
9117;SDS011;4594;50.994;7.126;2023-06-19T13:53:50;3.13;;;2.17;;
9117;SDS011;4594;50.994;7.126;2023-06-19T13:56:16;1.90;;;1.80;;
9117;SDS011;4594;50.994;7.126;2023-06-19T13:58:42;2.00;;;1.90;;
9117;SDS011;4594;50.994;7.126;2023-06-19T14:01:08;2.27;;;2.17;;
9117;SDS011;4594;50.994;7.126;2023-06-19T14:03:36;2.27;;;2.07;;
9117;SDS011;4594;50.994;7.126;2023-06-19T14:06:06;4.00;;;2.80;;
9117;SDS011;4594;50.994;7.126;2023-06-19T14:08:32;2.37;;;2.20;;
9117;SDS011;4594;50.994;7.126;2023-06-19T14:10:58;1.90;;;1.80;;
9117;SDS011;4594;50.994;7.126;2023-06-19T14:13:24;3.20;;;2.17;;
9117;SDS011;4594;50.994;7.126;2023-06-19T14:15:49;3.57;;;2.27;;
9117;SDS011;4594;50.994;7.126;2023-06-19T14:18:16;3.03;;;2.37;;
9117;SDS011;4594;50.994;7.126;2023-06-19T14:20:41;2.97;;;2.30;;
9117;SDS011;4594;50.994;7.126;2023-06-19T14:23:07;2.03;;;1.93;;
9117;SDS011;4594;50.994;7.126;2023-06-19T14:25:33;2.47;;;2.30;;
9117;SDS011;4594;50.994;7.126;2023-06-19T14:27:59;3.83;;;2.70;;
9117;SDS011;4594;50.994;7.126;2023-06-19T14:30:25;2.70;;;2.50;;
9117;SDS011;4594;50.994;7.126;2023-06-19T14:32:51;2.73;;;2.53;;
9117;SDS011;4594;50.994;7.126;2023-06-19T14:35:17;3.27;;;2.30;;
9117;SDS011;4594;50.994;7.126;2023-06-19T14:37:43;2.57;;;2.33;;
9117;SDS011;4594;50.994;7.126;2023-06-19T14:40:09;2.70;;;2.50;;
9117;SDS011;4594;50.994;7.126;2023-06-19T14:42:35;2.30;;;2.20;;
9117;SDS011;4594;50.994;7.126;2023-06-19T14:45:00;2.60;;;2.40;;
9117;SDS011;4594;50.994;7.126;2023-06-19T14:47:26;2.40;;;2.20;;
9117;SDS011;4594;50.994;7.126;2023-06-19T14:49:52;2.23;;;2.13;;
9117;SDS011;4594;50.994;7.126;2023-06-19T14:52:21;2.97;;;2.57;;
9117;SDS011;4594;50.994;7.126;2023-06-19T14:54:47;2.10;;;2.00;;
9117;SDS011;4594;50.994;7.126;2023-06-19T14:57:13;2.83;;;2.37;;
9117;SDS011;4594;50.994;7.126;2023-06-19T14:59:38;2.37;;;2.13;;
9117;SDS011;4594;50.994;7.126;2023-06-19T15:02:04;2.07;;;1.90;;
9117;SDS011;4594;50.994;7.126;2023-06-19T15:04:32;2.40;;;2.20;;
9117;SDS011;4594;50.994;7.126;2023-06-19T15:06:58;3.43;;;2.27;;
9117;SDS011;4594;50.994;7.126;2023-06-19T15:09:24;3.00;;;2.43;;
9117;SDS011;4594;50.994;7.126;2023-06-19T15:11:51;2.57;;;2.40;;
9117;SDS011;4594;50.994;7.126;2023-06-19T15:14:17;2.40;;;2.07;;
9117;SDS011;4594;50.994;7.126;2023-06-19T15:16:44;2.37;;;2.20;;
9117;SDS011;4594;50.994;7.126;2023-06-19T15:19:10;2.40;;;2.20;;
9117;SDS011;4594;50.994;7.126;2023-06-19T15:21:36;2.23;;;2.10;;
9117;SDS011;4594;50.994;7.126;2023-06-19T15:24:02;4.67;;;2.40;;
9117;SDS011;4594;50.994;7.126;2023-06-19T15:26:28;2.67;;;2.43;;
9117;SDS011;4594;50.994;7.126;2023-06-19T15:28:54;2.37;;;2.20;;